sensor_id;sensor_type;location;lat;lon;timestamp;pressure;altitude;pressure_sealevel;temperature;humidity
13594;BME280;6449;47.666;9.160;2023-04-10T00:02:00;97550.97;;;6.46;100.00
13594;BME280;6449;47.666;9.160;2023-04-10T00:06:54;97556.09;;;6.30;100.00
13594;BME280;6449;47.666;9.160;2023-04-10T00:11:48;97552.25;;;6.55;100.00
13594;BME280;6449;47.666;9.160;2023-04-10T00:16:41;97557.66;;;6.69;100.00
13594;BME280;6449;47.666;9.160;2023-04-10T00:21:36;97549.06;;;6.50;100.00
13594;BME280;6449;47.666;9.160;2023-04-10T00:26:31;97544.31;;;6.58;100.00
13594;BME280;6449;47.666;9.160;2023-04-10T00:31:25;97545.06;;;6.60;100.00
13594;BME280;6449;47.666;9.160;2023-04-10T00:36:18;97545.38;;;6.54;100.00
13594;BME280;6449;47.666;9.160;2023-04-10T00:41:14;97536.63;;;6.55;100.00
13594;BME280;6449;47.666;9.160;2023-04-10T00:46:07;97530.75;;;6.51;100.00
13594;BME280;6449;47.666;9.160;2023-04-10T00:51:01;97523.47;;;6.23;100.00
13594;BME280;6449;47.666;9.160;2023-04-10T00:55:56;97522.50;;;5.69;100.00
13594;BME280;6449;47.666;9.160;2023-04-10T01:00:51;97532.34;;;5.63;100.00
13594;BME280;6449;47.666;9.160;2023-04-10T01:05:54;97524.69;;;5.78;100.00
13594;BME280;6449;47.666;9.160;2023-04-10T01:11:01;97520.47;;;5.76;100.00
13594;BME280;6449;47.666;9.160;2023-04-10T01:16:04;97517.03;;;5.94;100.00
13594;BME280;6449;47.666;9.160;2023-04-10T01:21:01;97518.34;;;5.84;100.00
13594;BME280;6449;47.666;9.160;2023-04-10T01:26:02;97520.22;;;5.43;100.00
13594;BME280;6449;47.666;9.160;2023-04-10T01:31:00;97528.31;;;5.37;100.00
13594;BME280;6449;47.666;9.160;2023-04-10T01:35:57;97531.28;;;5.29;100.00
13594;BME280;6449;47.666;9.160;2023-04-10T01:40:54;97523.72;;;5.43;100.00
13594;BME280;6449;47.666;9.160;2023-04-10T01:45:53;97518.28;;;5.48;100.00
13594;BME280;6449;47.666;9.160;2023-04-10T01:57:10;97510.19;;;5.35;100.00
13594;BME280;6449;47.666;9.160;2023-04-10T02:02:06;97508.94;;;5.44;100.00
13594;BME280;6449;47.666;9.160;2023-04-10T02:07:06;97501.47;;;5.36;100.00
13594;BME280;6449;47.666;9.160;2023-04-10T02:12:06;97500.50;;;5.39;100.00
13594;BME280;6449;47.666;9.160;2023-04-10T02:17:03;97504.28;;;5.32;100.00
13594;BME280;6449;47.666;9.160;2023-04-10T02:21:58;97512.06;;;5.32;100.00
13594;BME280;6449;47.666;9.160;2023-04-10T02:26:53;97510.50;;;5.09;100.00
13594;BME280;6449;47.666;9.160;2023-04-10T02:31:49;97508.69;;;5.11;100.00
13594;BME280;6449;47.666;9.160;2023-04-10T02:36:44;97505.66;;;5.01;100.00
13594;BME280;6449;47.666;9.160;2023-04-10T02:41:37;97507.91;;;4.69;100.00
13594;BME280;6449;47.666;9.160;2023-04-10T02:46:30;97509.88;;;4.83;100.00
13594;BME280;6449;47.666;9.160;2023-04-10T02:51:24;97509.56;;;4.91;100.00
13594;BME280;6449;47.666;9.160;2023-04-10T02:56:22;97504.66;;;4.85;100.00
13594;BME280;6449;47.666;9.160;2023-04-10T03:01:17;97517.63;;;4.44;100.00
13594;BME280;6449;47.666;9.160;2023-04-10T03:06:11;97502.22;;;4.39;100.00
13594;BME280;6449;47.666;9.160;2023-04-10T03:11:06;97500.59;;;4.57;100.00
13594;BME280;6449;47.666;9.160;2023-04-10T03:16:01;97507.88;;;4.49;100.00
13594;BME280;6449;47.666;9.160;2023-04-10T03:20:55;97510.00;;;4.39;100.00
13594;BME280;6449;47.666;9.160;2023-04-10T03:25:49;97521.59;;;4.31;100.00
13594;BME280;6449;47.666;9.160;2023-04-10T03:30:44;97533.66;;;4.11;100.00
13594;BME280;6449;47.666;9.160;2023-04-10T03:35:40;97535.25;;;4.14;100.00
13594;BME280;6449;47.666;9.160;2023-04-10T03:40:34;97539.09;;;4.05;100.00
13594;BME280;6449;47.666;9.160;2023-04-10T03:45:28;97532.56;;;3.95;100.00
13594;BME280;6449;47.666;9.160;2023-04-10T03:50:21;97526.16;;;4.04;100.00
13594;BME280;6449;47.666;9.160;2023-04-10T03:55:16;97529.22;;;4.13;100.00
13594;BME280;6449;47.666;9.160;2023-04-10T04:00:11;97525.78;;;4.35;100.00
13594;BME280;6449;47.666;9.160;2023-04-10T04:05:05;97527.97;;;4.24;100.00
13594;BME280;6449;47.666;9.160;2023-04-10T04:09:59;97511.72;;;4.18;100.00
13594;BME280;6449;47.666;9.160;2023-04-10T04:14:54;97515.69;;;3.85;100.00
13594;BME280;6449;47.666;9.160;2023-04-10T04:19:47;97520.44;;;3.96;100.00
13594;BME280;6449;47.666;9.160;2023-04-10T04:24:41;97516.28;;;3.91;100.00
13594;BME280;6449;47.666;9.160;2023-04-10T04:29:34;97515.25;;;3.74;100.00
13594;BME280;6449;47.666;9.160;2023-04-10T04:34:29;97524.13;;;3.90;100.00
13594;BME280;6449;47.666;9.160;2023-04-10T04:39:22;97516.50;;;4.07;100.00
13594;BME280;6449;47.666;9.160;2023-04-10T04:44:17;97509.47;;;4.11;100.00
13594;BME280;6449;47.666;9.160;2023-04-10T04:49:10;97517.00;;;3.95;100.00
13594;BME280;6449;47.666;9.160;2023-04-10T04:54:05;97509.16;;;3.75;100.00
13594;BME280;6449;47.666;9.160;2023-04-10T04:58:58;97515.13;;;3.77;100.00
13594;BME280;6449;47.666;9.160;2023-04-10T05:03:51;97525.19;;;3.62;100.00
13594;BME280;6449;47.666;9.160;2023-04-10T05:08:45;97524.28;;;3.63;100.00
13594;BME280;6449;47.666;9.160;2023-04-10T05:13:42;97524.72;;;3.75;100.00
13594;BME280;6449;47.666;9.160;2023-04-10T05:18:38;97521.31;;;3.73;100.00
13594;BME280;6449;47.666;9.160;2023-04-10T05:23:32;97523.19;;;3.69;100.00
13594;BME280;6449;47.666;9.160;2023-04-10T05:28:25;97524.81;;;3.93;100.00
13594;BME280;6449;47.666;9.160;2023-04-10T05:33:20;97522.66;;;4.05;100.00
13594;BME280;6449;47.666;9.160;2023-04-10T05:38:13;97533.09;;;4.03;100.00
13594;BME280;6449;47.666;9.160;2023-04-10T05:43:06;97531.53;;;3.99;100.00
13594;BME280;6449;47.666;9.160;2023-04-10T05:48:00;97541.66;;;4.27;100.00
13594;BME280;6449;47.666;9.160;2023-04-10T05:52:55;97543.94;;;4.35;100.00
13594;BME280;6449;47.666;9.160;2023-04-10T05:57:48;97542.16;;;4.37;100.00
13594;BME280;6449;47.666;9.160;2023-04-10T06:02:43;97541.25;;;4.58;100.00
13594;BME280;6449;47.666;9.160;2023-04-10T06:07:36;97557.63;;;4.81;100.00
13594;BME280;6449;47.666;9.160;2023-04-10T06:12:31;97559.59;;;4.96;100.00
13594;BME280;6449;47.666;9.160;2023-04-10T06:17:25;97560.19;;;5.21;100.00
13594;BME280;6449;47.666;9.160;2023-04-10T06:22:19;97560.22;;;5.59;100.00
13594;BME280;6449;47.666;9.160;2023-04-10T06:27:13;97562.78;;;5.79;100.00
13594;BME280;6449;47.666;9.160;2023-04-10T06:37:03;97555.75;;;5.82;100.00
13594;BME280;6449;47.666;9.160;2023-04-10T06:41:57;97549.72;;;5.62;100.00
13594;BME280;6449;47.666;9.160;2023-04-10T06:46:50;97551.53;;;5.79;100.00
13594;BME280;6449;47.666;9.160;2023-04-10T06:51:46;97553.53;;;5.93;100.00
13594;BME280;6449;47.666;9.160;2023-04-10T06:56:41;97548.16;;;6.15;100.00
13594;BME280;6449;47.666;9.160;2023-04-10T07:01:35;97545.19;;;6.22;100.00
13594;BME280;6449;47.666;9.160;2023-04-10T07:06:28;97538.50;;;6.17;100.00
13594;BME280;6449;47.666;9.160;2023-04-10T07:11:22;97539.13;;;6.22;100.00
13594;BME280;6449;47.666;9.160;2023-04-10T07:16:17;97534.50;;;6.46;100.00
13594;BME280;6449;47.666;9.160;2023-04-10T07:21:10;97536.38;;;6.61;100.00
13594;BME280;6449;47.666;9.160;2023-04-10T07:31:11;97535.34;;;6.64;100.00
13594;BME280;6449;47.666;9.160;2023-04-10T07:36:07;97539.94;;;6.93;100.00
13594;BME280;6449;47.666;9.160;2023-04-10T07:41:01;97524.66;;;7.20;100.00
13594;BME280;6449;47.666;9.160;2023-04-10T07:45:55;97530.69;;;7.54;100.00
13594;BME280;6449;47.666;9.160;2023-04-10T08:06:11;97525.50;;;9.07;100.00
13594;BME280;6449;47.666;9.160;2023-04-10T08:11:22;97519.38;;;9.23;100.00
13594;BME280;6449;47.666;9.160;2023-04-10T08:16:15;97523.38;;;9.28;100.00
13594;BME280;6449;47.666;9.160;2023-04-10T08:21:10;97525.25;;;9.55;100.00
13594;BME280;6449;47.666;9.160;2023-04-10T08:26:04;97537.09;;;9.75;100.00
13594;BME280;6449;47.666;9.160;2023-04-10T08:30:57;97531.94;;;9.87;100.00
13594;BME280;6449;47.666;9.160;2023-04-10T08:35:51;97532.47;;;10.07;100.00
13594;BME280;6449;47.666;9.160;2023-04-10T08:40:46;97527.56;;;10.15;100.00
13594;BME280;6449;47.666;9.160;2023-04-10T08:45:40;97528.44;;;10.42;100.00
13594;BME280;6449;47.666;9.160;2023-04-10T08:50:35;97526.72;;;10.56;100.00
13594;BME280;6449;47.666;9.160;2023-04-10T08:55:33;97521.31;;;10.84;100.00
13594;BME280;6449;47.666;9.160;2023-04-10T09:00:29;97515.59;;;10.65;100.00
13594;BME280;6449;47.666;9.160;2023-04-10T09:05:29;97504.19;;;10.66;98.58
13594;BME280;6449;47.666;9.160;2023-04-10T09:10:23;97512.22;;;11.02;100.00
13594;BME280;6449;47.666;9.160;2023-04-10T09:15:24;97504.34;;;11.41;100.00
13594;BME280;6449;47.666;9.160;2023-04-10T09:20:25;97504.63;;;11.49;99.07
13594;BME280;6449;47.666;9.160;2023-04-10T09:25:31;97492.31;;;11.62;92.05
13594;BME280;6449;47.666;9.160;2023-04-10T09:30:34;97500.88;;;11.77;94.69
13594;BME280;6449;47.666;9.160;2023-04-10T09:35:37;97491.56;;;11.73;90.30
13594;BME280;6449;47.666;9.160;2023-04-10T09:40:31;97489.44;;;11.78;89.32
13594;BME280;6449;47.666;9.160;2023-04-10T09:45:24;97475.41;;;12.03;80.58
13594;BME280;6449;47.666;9.160;2023-04-10T09:50:20;97455.81;;;12.20;77.64
13594;BME280;6449;47.666;9.160;2023-04-10T09:55:33;97452.81;;;12.48;76.99
13594;BME280;6449;47.666;9.160;2023-04-10T10:00:27;97454.03;;;12.67;77.71
13594;BME280;6449;47.666;9.160;2023-04-10T10:05:22;97439.50;;;12.85;72.43
13594;BME280;6449;47.666;9.160;2023-04-10T10:10:19;97418.00;;;13.02;65.55
13594;BME280;6449;47.666;9.160;2023-04-10T10:15:25;97413.34;;;13.17;71.78
13594;BME280;6449;47.666;9.160;2023-04-10T10:20:25;97403.44;;;13.32;68.83
13594;BME280;6449;47.666;9.160;2023-04-10T10:25:19;97377.81;;;13.34;62.46
13594;BME280;6449;47.666;9.160;2023-04-10T10:30:17;97382.25;;;13.33;63.87
13594;BME280;6449;47.666;9.160;2023-04-10T10:35:22;97383.88;;;13.46;68.52
13594;BME280;6449;47.666;9.160;2023-04-10T10:40:27;97381.69;;;13.62;70.02
13594;BME280;6449;47.666;9.160;2023-04-10T10:45:30;97358.09;;;13.72;64.58
13594;BME280;6449;47.666;9.160;2023-04-10T10:50:51;97368.00;;;13.79;66.32
13594;BME280;6449;47.666;9.160;2023-04-10T10:55:45;97348.88;;;13.98;63.52
13594;BME280;6449;47.666;9.160;2023-04-10T11:01:06;97339.72;;;14.13;59.89
13594;BME280;6449;47.666;9.160;2023-04-10T11:06:05;97331.59;;;14.05;61.24
13594;BME280;6449;47.666;9.160;2023-04-10T11:10:59;97319.59;;;14.12;59.29
13594;BME280;6449;47.666;9.160;2023-04-10T11:15:56;97308.97;;;14.03;58.75
13594;BME280;6449;47.666;9.160;2023-04-10T11:26:35;97302.09;;;13.91;57.80
13594;BME280;6449;47.666;9.160;2023-04-10T11:31:33;97296.81;;;13.91;58.73
13594;BME280;6449;47.666;9.160;2023-04-10T11:36:30;97296.91;;;13.89;57.55
13594;BME280;6449;47.666;9.160;2023-04-10T11:41:30;97289.63;;;14.13;59.75
13594;BME280;6449;47.666;9.160;2023-04-10T11:46:24;97289.63;;;14.13;55.44
13594;BME280;6449;47.666;9.160;2023-04-10T11:51:18;97297.84;;;14.41;60.43
13594;BME280;6449;47.666;9.160;2023-04-10T11:56:16;97271.69;;;14.38;51.49
13594;BME280;6449;47.666;9.160;2023-04-10T12:01:11;97273.34;;;14.50;52.02
13594;BME280;6449;47.666;9.160;2023-04-10T12:06:10;97251.56;;;14.37;46.71
13594;BME280;6449;47.666;9.160;2023-04-10T12:11:04;97252.50;;;14.47;45.16
13594;BME280;6449;47.666;9.160;2023-04-10T12:15:58;97238.66;;;14.55;45.76
13594;BME280;6449;47.666;9.160;2023-04-10T12:20:55;97246.56;;;14.64;46.96
13594;BME280;6449;47.666;9.160;2023-04-10T12:25:50;97225.34;;;14.66;44.57
13594;BME280;6449;47.666;9.160;2023-04-10T12:30:57;97224.41;;;14.46;45.58
13594;BME280;6449;47.666;9.160;2023-04-10T12:35:57;97218.25;;;14.36;43.62
13594;BME280;6449;47.666;9.160;2023-04-10T12:40:58;97215.88;;;14.63;42.46
13594;BME280;6449;47.666;9.160;2023-04-10T12:45:52;97199.09;;;14.64;42.49
13594;BME280;6449;47.666;9.160;2023-04-10T12:50:49;97172.81;;;14.53;36.14
13594;BME280;6449;47.666;9.160;2023-04-10T12:56:04;97173.13;;;14.70;37.44
13594;BME280;6449;47.666;9.160;2023-04-10T13:01:08;97149.38;;;14.60;34.61
13594;BME280;6449;47.666;9.160;2023-04-10T13:06:02;97155.16;;;14.54;36.30
13594;BME280;6449;47.666;9.160;2023-04-10T13:10:58;97152.31;;;14.66;34.65
13594;BME280;6449;47.666;9.160;2023-04-10T13:15:54;97133.13;;;14.74;31.73
13594;BME280;6449;47.666;9.160;2023-04-10T13:20:47;97131.75;;;14.80;32.27
13594;BME280;6449;47.666;9.160;2023-04-10T13:25:41;97137.88;;;14.80;35.30
13594;BME280;6449;47.666;9.160;2023-04-10T13:30:37;97137.03;;;14.80;35.36
13594;BME280;6449;47.666;9.160;2023-04-10T13:35:31;97121.06;;;14.72;34.24
13594;BME280;6449;47.666;9.160;2023-04-10T13:40:31;97117.06;;;14.87;34.92
13594;BME280;6449;47.666;9.160;2023-04-10T13:45:24;97106.63;;;14.95;34.08
13594;BME280;6449;47.666;9.160;2023-04-10T13:55:27;97117.34;;;14.93;38.34
13594;BME280;6449;47.666;9.160;2023-04-10T14:00:29;97108.56;;;14.83;34.21
13594;BME280;6449;47.666;9.160;2023-04-10T14:05:29;97094.25;;;15.15;33.94
13594;BME280;6449;47.666;9.160;2023-04-10T14:10:26;97096.91;;;15.05;35.43
13594;BME280;6449;47.666;9.160;2023-04-10T14:15:29;97085.22;;;15.17;32.97
13594;BME280;6449;47.666;9.160;2023-04-10T14:26:52;97090.91;;;15.23;37.94
13594;BME280;6449;47.666;9.160;2023-04-10T14:32:22;97085.78;;;15.11;38.31
13594;BME280;6449;47.666;9.160;2023-04-10T14:44:32;97087.44;;;15.12;39.38
13594;BME280;6449;47.666;9.160;2023-04-10T14:49:31;97065.63;;;15.20;35.93
13594;BME280;6449;47.666;9.160;2023-04-10T14:54:51;97075.50;;;15.08;37.16
13594;BME280;6449;47.666;9.160;2023-04-10T14:59:58;97066.72;;;15.17;36.55
13594;BME280;6449;47.666;9.160;2023-04-10T15:04:52;97051.19;;;15.24;35.41
13594;BME280;6449;47.666;9.160;2023-04-10T15:09:55;97055.22;;;15.18;36.17
13594;BME280;6449;47.666;9.160;2023-04-10T15:14:56;97045.59;;;15.17;35.55
13594;BME280;6449;47.666;9.160;2023-04-10T15:19:49;97033.13;;;15.00;33.65
13594;BME280;6449;47.666;9.160;2023-04-10T15:24:52;97060.91;;;15.04;39.68
13594;BME280;6449;47.666;9.160;2023-04-10T15:29:51;97046.19;;;14.92;37.58
13594;BME280;6449;47.666;9.160;2023-04-10T15:34:45;97053.72;;;14.87;44.40
13594;BME280;6449;47.666;9.160;2023-04-10T15:39:38;97048.13;;;14.80;44.06
13594;BME280;6449;47.666;9.160;2023-04-10T15:44:44;97041.19;;;14.79;42.90
13594;BME280;6449;47.666;9.160;2023-04-10T15:49:41;97043.13;;;14.77;42.19
13594;BME280;6449;47.666;9.160;2023-04-10T15:54:43;97035.38;;;14.76;42.45
13594;BME280;6449;47.666;9.160;2023-04-10T15:59:38;97048.00;;;14.82;44.29
13594;BME280;6449;47.666;9.160;2023-04-10T16:04:47;97038.97;;;14.84;45.57
13594;BME280;6449;47.666;9.160;2023-04-10T16:09:42;97030.91;;;14.86;46.01
13594;BME280;6449;47.666;9.160;2023-04-10T16:14:59;97041.34;;;14.78;49.05
13594;BME280;6449;47.666;9.160;2023-04-10T16:20:04;97036.88;;;14.68;50.79
13594;BME280;6449;47.666;9.160;2023-04-10T16:24:59;97038.25;;;14.63;51.11
13594;BME280;6449;47.666;9.160;2023-04-10T16:30:03;97029.78;;;14.59;50.63
13594;BME280;6449;47.666;9.160;2023-04-10T16:35:08;97035.34;;;14.56;52.85
13594;BME280;6449;47.666;9.160;2023-04-10T16:40:05;97038.13;;;14.55;52.35
13594;BME280;6449;47.666;9.160;2023-04-10T16:45:10;97026.31;;;14.49;52.14
13594;BME280;6449;47.666;9.160;2023-04-10T16:50:22;97022.50;;;14.32;52.07
13594;BME280;6449;47.666;9.160;2023-04-10T16:55:34;97023.47;;;14.12;56.45
13594;BME280;6449;47.666;9.160;2023-04-10T17:08:33;97009.56;;;14.10;50.04
13594;BME280;6449;47.666;9.160;2023-04-10T17:13:16;97014.13;;;13.98;53.99
13594;BME280;6449;47.666;9.160;2023-04-10T17:18:33;97000.75;;;13.90;50.62
13594;BME280;6449;47.666;9.160;2023-04-10T17:24:21;96999.94;;;13.80;52.36
13594;BME280;6449;47.666;9.160;2023-04-10T17:29:28;97007.34;;;13.65;53.20
13594;BME280;6449;47.666;9.160;2023-04-10T17:36:13;96996.75;;;13.55;53.50
13594;BME280;6449;47.666;9.160;2023-04-10T17:41:12;97000.72;;;13.40;58.91
13594;BME280;6449;47.666;9.160;2023-04-10T18:04:32;97018.13;;;13.10;64.66
13594;BME280;6449;47.666;9.160;2023-04-10T18:09:26;97005.47;;;13.04;64.73
13594;BME280;6449;47.666;9.160;2023-04-10T18:14:19;97005.97;;;12.98;69.96
13594;BME280;6449;47.666;9.160;2023-04-10T18:19:13;96997.06;;;12.90;70.97
13594;BME280;6449;47.666;9.160;2023-04-10T18:24:10;97006.19;;;12.85;71.38
13594;BME280;6449;47.666;9.160;2023-04-10T18:29:07;97000.09;;;12.85;74.39
13594;BME280;6449;47.666;9.160;2023-04-10T18:34:16;97011.81;;;12.81;76.70
13594;BME280;6449;47.666;9.160;2023-04-10T18:39:13;97010.53;;;12.75;76.92
13594;BME280;6449;47.666;9.160;2023-04-10T18:44:17;96996.56;;;12.75;77.16
13594;BME280;6449;47.666;9.160;2023-04-10T18:49:15;96991.03;;;12.78;79.49
13594;BME280;6449;47.666;9.160;2023-04-10T18:54:10;96992.94;;;12.76;77.61
13594;BME280;6449;47.666;9.160;2023-04-10T18:59:25;97001.34;;;12.70;78.76
13594;BME280;6449;47.666;9.160;2023-04-10T19:04:19;97011.28;;;12.66;80.92
13594;BME280;6449;47.666;9.160;2023-04-10T19:09:18;97009.44;;;12.57;80.23
13594;BME280;6449;47.666;9.160;2023-04-10T19:14:16;97010.75;;;12.51;84.31
13594;BME280;6449;47.666;9.160;2023-04-10T19:19:14;97004.00;;;12.38;84.42
13594;BME280;6449;47.666;9.160;2023-04-10T19:24:19;97001.50;;;12.36;88.02
13594;BME280;6449;47.666;9.160;2023-04-10T19:29:13;97019.19;;;12.34;86.94
13594;BME280;6449;47.666;9.160;2023-04-10T19:34:10;97038.09;;;12.17;93.68
13594;BME280;6449;47.666;9.160;2023-04-10T19:39:07;97046.47;;;12.11;92.74
13594;BME280;6449;47.666;9.160;2023-04-10T19:44:00;97054.72;;;12.06;95.64
13594;BME280;6449;47.666;9.160;2023-04-10T19:48:56;97043.13;;;12.09;99.51
13594;BME280;6449;47.666;9.160;2023-04-10T19:53:54;97032.63;;;12.09;100.00
13594;BME280;6449;47.666;9.160;2023-04-10T19:58:51;97031.22;;;11.93;100.00
13594;BME280;6449;47.666;9.160;2023-04-10T20:03:46;97033.38;;;11.88;100.00
13594;BME280;6449;47.666;9.160;2023-04-10T20:08:40;97031.47;;;11.90;100.00
13594;BME280;6449;47.666;9.160;2023-04-10T20:13:39;97025.59;;;11.87;100.00
13594;BME280;6449;47.666;9.160;2023-04-10T20:18:38;97033.00;;;11.82;100.00
13594;BME280;6449;47.666;9.160;2023-04-10T20:23:36;97034.78;;;11.81;100.00
13594;BME280;6449;47.666;9.160;2023-04-10T20:28:29;97028.59;;;11.82;100.00
13594;BME280;6449;47.666;9.160;2023-04-10T20:33:23;97030.72;;;11.77;100.00
13594;BME280;6449;47.666;9.160;2023-04-10T20:38:19;97036.44;;;11.71;100.00
13594;BME280;6449;47.666;9.160;2023-04-10T20:43:14;97042.06;;;11.77;100.00
13594;BME280;6449;47.666;9.160;2023-04-10T20:48:22;97046.75;;;11.85;100.00
13594;BME280;6449;47.666;9.160;2023-04-10T20:59:54;97065.13;;;11.85;100.00
13594;BME280;6449;47.666;9.160;2023-04-10T21:04:49;97066.06;;;11.73;100.00
13594;BME280;6449;47.666;9.160;2023-04-10T21:09:57;97067.47;;;11.66;100.00
13594;BME280;6449;47.666;9.160;2023-04-10T21:15:02;97063.66;;;11.70;100.00
13594;BME280;6449;47.666;9.160;2023-04-10T21:20:03;97040.28;;;11.78;100.00
13594;BME280;6449;47.666;9.160;2023-04-10T21:25:08;97050.66;;;11.79;100.00
13594;BME280;6449;47.666;9.160;2023-04-10T21:30:04;97061.16;;;11.79;100.00
13594;BME280;6449;47.666;9.160;2023-04-10T21:34:58;97060.97;;;11.83;100.00
13594;BME280;6449;47.666;9.160;2023-04-10T21:39:51;97055.59;;;11.84;100.00
13594;BME280;6449;47.666;9.160;2023-04-10T21:44:44;97051.03;;;11.86;100.00
13594;BME280;6449;47.666;9.160;2023-04-10T21:49:39;97047.72;;;11.84;100.00
13594;BME280;6449;47.666;9.160;2023-04-10T21:54:33;97029.31;;;11.84;100.00
13594;BME280;6449;47.666;9.160;2023-04-10T21:59:26;97032.06;;;11.83;100.00
13594;BME280;6449;47.666;9.160;2023-04-10T22:04:22;97029.31;;;11.84;100.00
13594;BME280;6449;47.666;9.160;2023-04-10T22:09:17;97020.59;;;11.84;100.00
13594;BME280;6449;47.666;9.160;2023-04-10T22:14:11;97015.69;;;11.90;100.00
13594;BME280;6449;47.666;9.160;2023-04-10T22:19:09;97013.91;;;11.91;100.00
13594;BME280;6449;47.666;9.160;2023-04-10T22:24:03;97017.34;;;11.91;100.00
13594;BME280;6449;47.666;9.160;2023-04-10T22:28:58;97009.34;;;11.93;100.00
13594;BME280;6449;47.666;9.160;2023-04-10T22:33:54;96983.22;;;11.91;100.00
13594;BME280;6449;47.666;9.160;2023-04-10T22:38:47;96976.75;;;11.95;100.00
13594;BME280;6449;47.666;9.160;2023-04-10T22:43:41;96950.34;;;11.97;100.00
13594;BME280;6449;47.666;9.160;2023-04-10T22:48:35;96948.31;;;12.00;100.00
13594;BME280;6449;47.666;9.160;2023-04-10T22:53:29;96938.50;;;12.02;100.00
13594;BME280;6449;47.666;9.160;2023-04-10T22:58:22;96934.91;;;12.03;100.00
13594;BME280;6449;47.666;9.160;2023-04-10T23:03:15;96934.22;;;12.01;100.00
13594;BME280;6449;47.666;9.160;2023-04-10T23:08:10;96933.25;;;12.02;100.00
13594;BME280;6449;47.666;9.160;2023-04-10T23:13:04;96928.84;;;12.03;100.00
13594;BME280;6449;47.666;9.160;2023-04-10T23:17:57;96906.28;;;12.00;100.00
13594;BME280;6449;47.666;9.160;2023-04-10T23:22:51;96917.38;;;12.04;100.00
13594;BME280;6449;47.666;9.160;2023-04-10T23:27:46;96900.69;;;11.94;100.00
13594;BME280;6449;47.666;9.160;2023-04-10T23:32:39;96886.59;;;11.95;100.00
13594;BME280;6449;47.666;9.160;2023-04-10T23:37:33;96860.47;;;11.93;100.00
13594;BME280;6449;47.666;9.160;2023-04-10T23:42:26;96849.09;;;11.93;100.00
13594;BME280;6449;47.666;9.160;2023-04-10T23:47:21;96822.25;;;11.89;100.00
13594;BME280;6449;47.666;9.160;2023-04-10T23:52:15;96829.56;;;11.86;100.00
13594;BME280;6449;47.666;9.160;2023-04-10T23:57:08;96826.78;;;11.87;100.00
